Weather at Highwood Livestock Auction Airport [CLOSED]

Public forecast

Using degrees Celsius for public forecast. Weather courtesy of forecast.io.

Closest aviation weather report (METAR) to Highwood Livestock Auction Airport

Closest report is Calgary International Airport, 28.6 nm (52.9 km) NNW. Retrieved 2022/05/20 07:43 UTC (7 minutes ago):

CYYC 200743Z 35013G18KT 10SM VCSH BKN024 BKN035 03/01 A3004 RMK SC5SC2 SH S SLP211

Closest aviation forecast (TAF) to Highwood Livestock Auction Airport

Closest forecast is Calgary International Airport, 28.6 nm (52.9 km) NNW. Retrieved 2022/05/20 06:44 UTC (1 hour ago):

TAF CYYC 200540Z 2006/2106 34015G25KT P6SM FEW008 SCT015 OVC040 TEMPO 2006/2016 5SM -SHRA BR BKN008 BKN015 OVC040 FM201600 35015KT P6SM SCT020 BKN040 TEMPO 2016/2020 BKN020 BKN040 FM202000 36015KT P6SM SCT040 SCT180 FM210200 36012KT P6SM BKN040 BKN120 BECMG 2104/2106 36006KT RMK NXT FCST BY 200900Z